sensor_id;sensor_type;location;lat;lon;timestamp;P1;durP1;ratioP1;P2;durP2;ratioP2
11935;SDS011;6027;48.576;9.180;2023-02-11T00:01:39;32.43;;;23.43;;
11935;SDS011;6027;48.576;9.180;2023-02-11T00:04:05;40.27;;;27.23;;
11935;SDS011;6027;48.576;9.180;2023-02-11T00:06:31;67.57;;;40.10;;
11935;SDS011;6027;48.576;9.180;2023-02-11T00:08:58;46.47;;;31.33;;
11935;SDS011;6027;48.576;9.180;2023-02-11T00:11:24;36.87;;;25.37;;
11935;SDS011;6027;48.576;9.180;2023-02-11T00:13:54;37.67;;;25.33;;
11935;SDS011;6027;48.576;9.180;2023-02-11T00:16:20;31.03;;;22.87;;
11935;SDS011;6027;48.576;9.180;2023-02-11T00:18:46;29.70;;;22.00;;
11935;SDS011;6027;48.576;9.180;2023-02-11T00:21:13;27.10;;;21.20;;
11935;SDS011;6027;48.576;9.180;2023-02-11T00:23:41;29.60;;;21.60;;
11935;SDS011;6027;48.576;9.180;2023-02-11T00:26:13;29.83;;;22.10;;
11935;SDS011;6027;48.576;9.180;2023-02-11T00:28:40;27.00;;;20.97;;
11935;SDS011;6027;48.576;9.180;2023-02-11T00:31:06;28.70;;;20.87;;
11935;SDS011;6027;48.576;9.180;2023-02-11T00:33:31;27.30;;;21.17;;
11935;SDS011;6027;48.576;9.180;2023-02-11T00:35:56;32.57;;;22.17;;
11935;SDS011;6027;48.576;9.180;2023-02-11T00:38:22;27.73;;;21.70;;
11935;SDS011;6027;48.576;9.180;2023-02-11T00:40:47;31.20;;;20.57;;
11935;SDS011;6027;48.576;9.180;2023-02-11T00:43:13;29.63;;;20.70;;
11935;SDS011;6027;48.576;9.180;2023-02-11T00:45:38;27.40;;;20.13;;
11935;SDS011;6027;48.576;9.180;2023-02-11T00:48:04;27.93;;;21.77;;
11935;SDS011;6027;48.576;9.180;2023-02-11T00:50:29;27.57;;;22.20;;
11935;SDS011;6027;48.576;9.180;2023-02-11T00:52:54;28.60;;;20.60;;
11935;SDS011;6027;48.576;9.180;2023-02-11T00:55:20;27.07;;;19.93;;
11935;SDS011;6027;48.576;9.180;2023-02-11T00:57:46;33.27;;;22.10;;
11935;SDS011;6027;48.576;9.180;2023-02-11T01:00:12;31.00;;;21.30;;
11935;SDS011;6027;48.576;9.180;2023-02-11T01:02:38;31.30;;;21.07;;
11935;SDS011;6027;48.576;9.180;2023-02-11T01:05:03;30.30;;;21.23;;
11935;SDS011;6027;48.576;9.180;2023-02-11T01:07:29;30.53;;;20.33;;
11935;SDS011;6027;48.576;9.180;2023-02-11T01:09:55;30.23;;;19.93;;
11935;SDS011;6027;48.576;9.180;2023-02-11T01:12:21;29.20;;;20.03;;
11935;SDS011;6027;48.576;9.180;2023-02-11T01:14:46;26.90;;;19.67;;
11935;SDS011;6027;48.576;9.180;2023-02-11T01:17:12;30.60;;;20.60;;
11935;SDS011;6027;48.576;9.180;2023-02-11T01:19:37;26.03;;;18.97;;
11935;SDS011;6027;48.576;9.180;2023-02-11T01:22:03;30.40;;;19.60;;
11935;SDS011;6027;48.576;9.180;2023-02-11T01:24:29;26.17;;;19.80;;
11935;SDS011;6027;48.576;9.180;2023-02-11T01:26:54;28.77;;;19.90;;
11935;SDS011;6027;48.576;9.180;2023-02-11T01:29:20;26.73;;;19.67;;
11935;SDS011;6027;48.576;9.180;2023-02-11T01:31:46;27.50;;;19.37;;
11935;SDS011;6027;48.576;9.180;2023-02-11T01:34:12;26.50;;;19.20;;
11935;SDS011;6027;48.576;9.180;2023-02-11T01:36:38;27.70;;;19.03;;
11935;SDS011;6027;48.576;9.180;2023-02-11T01:39:04;29.90;;;19.83;;
11935;SDS011;6027;48.576;9.180;2023-02-11T01:41:29;30.53;;;20.77;;
11935;SDS011;6027;48.576;9.180;2023-02-11T01:43:55;27.53;;;20.23;;
11935;SDS011;6027;48.576;9.180;2023-02-11T01:46:36;39.70;;;22.07;;
11935;SDS011;6027;48.576;9.180;2023-02-11T01:51:36;31.60;;;20.57;;
11935;SDS011;6027;48.576;9.180;2023-02-11T01:54:11;28.43;;;20.00;;
11935;SDS011;6027;48.576;9.180;2023-02-11T01:56:59;32.03;;;21.20;;
11935;SDS011;6027;48.576;9.180;2023-02-11T01:59:48;32.17;;;21.07;;
11935;SDS011;6027;48.576;9.180;2023-02-11T02:02:16;32.00;;;21.03;;
11935;SDS011;6027;48.576;9.180;2023-02-11T02:04:59;30.97;;;20.80;;
11935;SDS011;6027;48.576;9.180;2023-02-11T02:10:23;32.17;;;20.63;;
11935;SDS011;6027;48.576;9.180;2023-02-11T02:12:51;28.93;;;20.60;;
11935;SDS011;6027;48.576;9.180;2023-02-11T02:15:25;30.80;;;20.67;;
11935;SDS011;6027;48.576;9.180;2023-02-11T02:17:57;27.43;;;21.23;;
11935;SDS011;6027;48.576;9.180;2023-02-11T02:26:13;32.90;;;21.20;;
11935;SDS011;6027;48.576;9.180;2023-02-11T02:34:43;29.17;;;20.57;;
11935;SDS011;6027;48.576;9.180;2023-02-11T02:37:14;29.17;;;21.37;;
11935;SDS011;6027;48.576;9.180;2023-02-11T02:39:45;28.70;;;20.60;;
11935;SDS011;6027;48.576;9.180;2023-02-11T02:42:14;34.47;;;24.57;;
11935;SDS011;6027;48.576;9.180;2023-02-11T02:44:46;30.33;;;22.63;;
11935;SDS011;6027;48.576;9.180;2023-02-11T02:47:13;34.73;;;22.20;;
11935;SDS011;6027;48.576;9.180;2023-02-11T02:49:38;30.20;;;21.93;;
11935;SDS011;6027;48.576;9.180;2023-02-11T02:54:49;30.63;;;23.27;;
11935;SDS011;6027;48.576;9.180;2023-02-11T03:00:05;28.30;;;20.90;;
11935;SDS011;6027;48.576;9.180;2023-02-11T03:05:30;30.30;;;22.77;;
11935;SDS011;6027;48.576;9.180;2023-02-11T03:10:44;32.27;;;23.57;;
11935;SDS011;6027;48.576;9.180;2023-02-11T03:13:13;30.23;;;22.63;;
11935;SDS011;6027;48.576;9.180;2023-02-11T03:15:44;29.90;;;22.27;;
11935;SDS011;6027;48.576;9.180;2023-02-11T03:18:15;30.90;;;22.10;;
11935;SDS011;6027;48.576;9.180;2023-02-11T03:20:44;31.27;;;22.00;;
11935;SDS011;6027;48.576;9.180;2023-02-11T03:25:58;28.07;;;21.30;;
11935;SDS011;6027;48.576;9.180;2023-02-11T03:34:10;29.30;;;20.47;;
11935;SDS011;6027;48.576;9.180;2023-02-11T03:36:42;28.20;;;19.37;;
11935;SDS011;6027;48.576;9.180;2023-02-11T03:39:15;26.00;;;18.83;;
11935;SDS011;6027;48.576;9.180;2023-02-11T03:41:46;30.23;;;20.00;;
11935;SDS011;6027;48.576;9.180;2023-02-11T03:44:14;29.30;;;19.80;;
11935;SDS011;6027;48.576;9.180;2023-02-11T03:46:42;29.40;;;20.43;;
11935;SDS011;6027;48.576;9.180;2023-02-11T03:49:14;29.23;;;19.10;;
11935;SDS011;6027;48.576;9.180;2023-02-11T03:51:44;27.30;;;18.93;;
11935;SDS011;6027;48.576;9.180;2023-02-11T03:54:13;32.17;;;19.93;;
11935;SDS011;6027;48.576;9.180;2023-02-11T03:56:53;30.93;;;22.33;;
11935;SDS011;6027;48.576;9.180;2023-02-11T03:59:20;26.83;;;19.13;;
11935;SDS011;6027;48.576;9.180;2023-02-11T04:01:47;25.80;;;19.17;;
11935;SDS011;6027;48.576;9.180;2023-02-11T04:04:12;29.03;;;19.60;;
11935;SDS011;6027;48.576;9.180;2023-02-11T04:06:38;29.90;;;18.67;;
11935;SDS011;6027;48.576;9.180;2023-02-11T04:09:03;29.40;;;19.80;;
11935;SDS011;6027;48.576;9.180;2023-02-11T04:11:29;30.93;;;19.77;;
11935;SDS011;6027;48.576;9.180;2023-02-11T04:13:54;29.30;;;20.17;;
11935;SDS011;6027;48.576;9.180;2023-02-11T04:16:19;29.97;;;20.37;;
11935;SDS011;6027;48.576;9.180;2023-02-11T04:18:45;29.00;;;20.67;;
11935;SDS011;6027;48.576;9.180;2023-02-11T04:21:10;31.20;;;21.20;;
11935;SDS011;6027;48.576;9.180;2023-02-11T04:23:36;28.60;;;20.07;;
11935;SDS011;6027;48.576;9.180;2023-02-11T04:26:02;32.63;;;20.40;;
11935;SDS011;6027;48.576;9.180;2023-02-11T04:28:27;32.17;;;20.47;;
11935;SDS011;6027;48.576;9.180;2023-02-11T04:30:54;32.67;;;20.53;;
11935;SDS011;6027;48.576;9.180;2023-02-11T04:33:20;33.57;;;20.87;;
11935;SDS011;6027;48.576;9.180;2023-02-11T04:35:45;30.43;;;21.53;;
11935;SDS011;6027;48.576;9.180;2023-02-11T04:38:11;30.70;;;20.63;;
11935;SDS011;6027;48.576;9.180;2023-02-11T04:40:37;32.40;;;20.90;;
11935;SDS011;6027;48.576;9.180;2023-02-11T04:43:03;34.50;;;22.50;;
11935;SDS011;6027;48.576;9.180;2023-02-11T04:45:28;33.90;;;21.30;;
11935;SDS011;6027;48.576;9.180;2023-02-11T04:47:54;35.20;;;21.90;;
11935;SDS011;6027;48.576;9.180;2023-02-11T04:50:19;30.57;;;21.90;;
11935;SDS011;6027;48.576;9.180;2023-02-11T04:52:45;36.00;;;23.80;;
11935;SDS011;6027;48.576;9.180;2023-02-11T04:55:10;30.73;;;21.97;;
11935;SDS011;6027;48.576;9.180;2023-02-11T04:57:36;34.20;;;22.13;;
11935;SDS011;6027;48.576;9.180;2023-02-11T05:00:01;45.43;;;28.30;;
11935;SDS011;6027;48.576;9.180;2023-02-11T05:02:27;44.83;;;27.83;;
11935;SDS011;6027;48.576;9.180;2023-02-11T05:04:53;36.03;;;22.27;;
11935;SDS011;6027;48.576;9.180;2023-02-11T05:07:18;35.17;;;22.73;;
11935;SDS011;6027;48.576;9.180;2023-02-11T05:09:44;31.73;;;22.10;;
11935;SDS011;6027;48.576;9.180;2023-02-11T05:12:09;31.23;;;21.47;;
11935;SDS011;6027;48.576;9.180;2023-02-11T05:14:34;31.60;;;20.93;;
11935;SDS011;6027;48.576;9.180;2023-02-11T05:17:00;34.43;;;22.27;;
11935;SDS011;6027;48.576;9.180;2023-02-11T05:19:25;35.00;;;22.53;;
11935;SDS011;6027;48.576;9.180;2023-02-11T05:21:51;33.20;;;21.90;;
11935;SDS011;6027;48.576;9.180;2023-02-11T05:24:17;34.13;;;22.00;;
11935;SDS011;6027;48.576;9.180;2023-02-11T05:26:43;36.00;;;23.63;;
11935;SDS011;6027;48.576;9.180;2023-02-11T05:29:08;33.37;;;22.47;;
11935;SDS011;6027;48.576;9.180;2023-02-11T05:31:34;29.93;;;20.77;;
11935;SDS011;6027;48.576;9.180;2023-02-11T05:33:59;35.83;;;26.60;;
11935;SDS011;6027;48.576;9.180;2023-02-11T05:36:27;32.67;;;24.77;;
11935;SDS011;6027;48.576;9.180;2023-02-11T05:38:53;43.43;;;30.00;;
11935;SDS011;6027;48.576;9.180;2023-02-11T05:41:19;32.70;;;22.03;;
11935;SDS011;6027;48.576;9.180;2023-02-11T05:43:46;35.73;;;23.57;;
11935;SDS011;6027;48.576;9.180;2023-02-11T05:46:12;32.73;;;24.10;;
11935;SDS011;6027;48.576;9.180;2023-02-11T05:48:38;33.17;;;24.03;;
11935;SDS011;6027;48.576;9.180;2023-02-11T05:51:03;35.30;;;25.50;;
11935;SDS011;6027;48.576;9.180;2023-02-11T05:53:29;37.17;;;24.67;;
11935;SDS011;6027;48.576;9.180;2023-02-11T05:55:55;31.30;;;22.87;;
11935;SDS011;6027;48.576;9.180;2023-02-11T05:58:20;31.90;;;23.37;;
11935;SDS011;6027;48.576;9.180;2023-02-11T06:00:46;29.97;;;22.93;;
11935;SDS011;6027;48.576;9.180;2023-02-11T06:03:11;32.17;;;23.33;;
11935;SDS011;6027;48.576;9.180;2023-02-11T06:05:37;30.63;;;23.33;;
11935;SDS011;6027;48.576;9.180;2023-02-11T06:08:03;32.23;;;24.23;;
11935;SDS011;6027;48.576;9.180;2023-02-11T06:10:28;33.00;;;23.43;;
11935;SDS011;6027;48.576;9.180;2023-02-11T06:12:54;32.83;;;22.70;;
11935;SDS011;6027;48.576;9.180;2023-02-11T06:15:19;31.53;;;23.20;;
11935;SDS011;6027;48.576;9.180;2023-02-11T06:17:46;31.63;;;24.13;;
11935;SDS011;6027;48.576;9.180;2023-02-11T06:20:12;30.40;;;23.33;;
11935;SDS011;6027;48.576;9.180;2023-02-11T06:22:37;33.97;;;24.90;;
11935;SDS011;6027;48.576;9.180;2023-02-11T06:25:03;29.47;;;23.20;;
11935;SDS011;6027;48.576;9.180;2023-02-11T06:27:28;32.93;;;25.07;;
11935;SDS011;6027;48.576;9.180;2023-02-11T06:29:55;35.87;;;26.50;;
11935;SDS011;6027;48.576;9.180;2023-02-11T06:32:20;34.50;;;26.93;;
11935;SDS011;6027;48.576;9.180;2023-02-11T06:34:46;33.93;;;25.30;;
11935;SDS011;6027;48.576;9.180;2023-02-11T06:37:11;40.67;;;30.47;;
11935;SDS011;6027;48.576;9.180;2023-02-11T06:39:37;38.63;;;29.47;;
11935;SDS011;6027;48.576;9.180;2023-02-11T06:42:02;32.13;;;24.27;;
11935;SDS011;6027;48.576;9.180;2023-02-11T06:44:28;31.00;;;24.13;;
11935;SDS011;6027;48.576;9.180;2023-02-11T06:46:53;33.83;;;24.77;;
11935;SDS011;6027;48.576;9.180;2023-02-11T06:49:19;33.90;;;25.97;;
11935;SDS011;6027;48.576;9.180;2023-02-11T06:51:44;34.13;;;24.40;;
11935;SDS011;6027;48.576;9.180;2023-02-11T06:54:10;30.27;;;24.37;;
11935;SDS011;6027;48.576;9.180;2023-02-11T06:56:38;30.67;;;23.87;;
11935;SDS011;6027;48.576;9.180;2023-02-11T06:59:05;30.43;;;24.83;;
11935;SDS011;6027;48.576;9.180;2023-02-11T07:01:30;31.23;;;24.73;;
11935;SDS011;6027;48.576;9.180;2023-02-11T07:03:56;32.17;;;25.83;;
11935;SDS011;6027;48.576;9.180;2023-02-11T07:06:22;30.87;;;24.57;;
11935;SDS011;6027;48.576;9.180;2023-02-11T07:08:54;33.43;;;24.37;;
11935;SDS011;6027;48.576;9.180;2023-02-11T07:11:22;32.63;;;24.60;;
11935;SDS011;6027;48.576;9.180;2023-02-11T07:13:50;31.57;;;24.70;;
11935;SDS011;6027;48.576;9.180;2023-02-11T07:18:44;29.77;;;24.50;;
11935;SDS011;6027;48.576;9.180;2023-02-11T07:21:12;32.80;;;25.07;;
11935;SDS011;6027;48.576;9.180;2023-02-11T07:23:42;33.37;;;24.70;;
11935;SDS011;6027;48.576;9.180;2023-02-11T07:26:13;29.53;;;24.80;;
11935;SDS011;6027;48.576;9.180;2023-02-11T07:28:40;33.47;;;24.97;;
11935;SDS011;6027;48.576;9.180;2023-02-11T07:33:37;30.43;;;25.23;;
11935;SDS011;6027;48.576;9.180;2023-02-11T07:36:03;34.57;;;28.97;;
11935;SDS011;6027;48.576;9.180;2023-02-11T07:38:31;53.53;;;47.87;;
11935;SDS011;6027;48.576;9.180;2023-02-11T07:41:01;39.23;;;33.47;;
11935;SDS011;6027;48.576;9.180;2023-02-11T07:43:33;35.17;;;28.53;;
11935;SDS011;6027;48.576;9.180;2023-02-11T07:45:58;34.27;;;27.30;;
11935;SDS011;6027;48.576;9.180;2023-02-11T07:48:27;35.30;;;26.67;;
11935;SDS011;6027;48.576;9.180;2023-02-11T07:50:53;35.57;;;26.43;;
11935;SDS011;6027;48.576;9.180;2023-02-11T07:53:18;30.87;;;25.43;;
11935;SDS011;6027;48.576;9.180;2023-02-11T07:55:44;34.73;;;26.73;;
11935;SDS011;6027;48.576;9.180;2023-02-11T07:58:09;37.07;;;27.77;;
11935;SDS011;6027;48.576;9.180;2023-02-11T08:00:35;33.57;;;27.37;;
11935;SDS011;6027;48.576;9.180;2023-02-11T08:03:00;34.40;;;24.97;;
11935;SDS011;6027;48.576;9.180;2023-02-11T08:05:26;32.93;;;25.60;;
11935;SDS011;6027;48.576;9.180;2023-02-11T08:07:56;31.97;;;24.53;;
11935;SDS011;6027;48.576;9.180;2023-02-11T08:10:22;33.93;;;25.83;;
11935;SDS011;6027;48.576;9.180;2023-02-11T08:12:48;30.33;;;23.90;;
11935;SDS011;6027;48.576;9.180;2023-02-11T08:15:24;32.03;;;24.40;;
11935;SDS011;6027;48.576;9.180;2023-02-11T08:17:49;32.10;;;24.57;;
11935;SDS011;6027;48.576;9.180;2023-02-11T08:20:16;31.20;;;24.57;;
11935;SDS011;6027;48.576;9.180;2023-02-11T08:22:43;33.37;;;25.60;;
11935;SDS011;6027;48.576;9.180;2023-02-11T08:25:08;32.50;;;26.20;;
11935;SDS011;6027;48.576;9.180;2023-02-11T08:27:33;27.97;;;24.20;;
11935;SDS011;6027;48.576;9.180;2023-02-11T08:29:59;28.43;;;23.30;;
11935;SDS011;6027;48.576;9.180;2023-02-11T08:32:25;31.10;;;23.87;;
11935;SDS011;6027;48.576;9.180;2023-02-11T08:34:51;29.97;;;23.03;;
11935;SDS011;6027;48.576;9.180;2023-02-11T08:37:24;26.53;;;21.83;;
11935;SDS011;6027;48.576;9.180;2023-02-11T08:39:49;27.43;;;20.87;;
11935;SDS011;6027;48.576;9.180;2023-02-11T08:42:15;28.27;;;22.40;;
11935;SDS011;6027;48.576;9.180;2023-02-11T08:44:40;27.50;;;21.57;;
11935;SDS011;6027;48.576;9.180;2023-02-11T08:47:07;25.50;;;21.43;;
11935;SDS011;6027;48.576;9.180;2023-02-11T08:49:33;27.03;;;20.90;;
11935;SDS011;6027;48.576;9.180;2023-02-11T08:51:59;24.73;;;21.50;;
11935;SDS011;6027;48.576;9.180;2023-02-11T08:54:28;26.23;;;20.47;;
11935;SDS011;6027;48.576;9.180;2023-02-11T08:56:54;28.57;;;21.93;;
11935;SDS011;6027;48.576;9.180;2023-02-11T08:59:20;26.77;;;20.83;;
11935;SDS011;6027;48.576;9.180;2023-02-11T09:01:46;24.33;;;21.73;;
11935;SDS011;6027;48.576;9.180;2023-02-11T09:04:11;23.80;;;21.23;;
11935;SDS011;6027;48.576;9.180;2023-02-11T09:06:38;25.63;;;21.17;;
11935;SDS011;6027;48.576;9.180;2023-02-11T09:09:04;27.77;;;22.97;;
11935;SDS011;6027;48.576;9.180;2023-02-11T09:11:30;23.17;;;20.43;;
11935;SDS011;6027;48.576;9.180;2023-02-11T09:13:58;26.27;;;21.77;;
11935;SDS011;6027;48.576;9.180;2023-02-11T09:16:26;25.23;;;22.00;;
11935;SDS011;6027;48.576;9.180;2023-02-11T09:18:56;25.17;;;22.33;;
11935;SDS011;6027;48.576;9.180;2023-02-11T09:21:22;25.23;;;21.97;;
11935;SDS011;6027;48.576;9.180;2023-02-11T09:23:48;29.77;;;21.83;;
11935;SDS011;6027;48.576;9.180;2023-02-11T09:26:15;24.40;;;21.57;;
11935;SDS011;6027;48.576;9.180;2023-02-11T09:28:42;25.30;;;22.60;;
11935;SDS011;6027;48.576;9.180;2023-02-11T09:31:09;24.17;;;21.67;;
11935;SDS011;6027;48.576;9.180;2023-02-11T09:33:37;24.30;;;21.77;;
11935;SDS011;6027;48.576;9.180;2023-02-11T09:36:06;24.33;;;21.37;;
11935;SDS011;6027;48.576;9.180;2023-02-11T09:38:32;23.97;;;20.67;;
11935;SDS011;6027;48.576;9.180;2023-02-11T09:40:58;27.07;;;22.23;;
11935;SDS011;6027;48.576;9.180;2023-02-11T09:43:26;23.53;;;21.13;;
11935;SDS011;6027;48.576;9.180;2023-02-11T09:45:57;25.17;;;21.90;;
11935;SDS011;6027;48.576;9.180;2023-02-11T09:48:24;25.43;;;21.17;;
11935;SDS011;6027;48.576;9.180;2023-02-11T09:50:53;25.90;;;20.53;;
11935;SDS011;6027;48.576;9.180;2023-02-11T09:53:30;21.77;;;19.57;;
11935;SDS011;6027;48.576;9.180;2023-02-11T09:56:01;21.03;;;18.80;;
11935;SDS011;6027;48.576;9.180;2023-02-11T09:58:35;20.40;;;18.40;;
11935;SDS011;6027;48.576;9.180;2023-02-11T10:03:55;21.33;;;18.87;;
11935;SDS011;6027;48.576;9.180;2023-02-11T10:09:09;22.73;;;20.33;;
11935;SDS011;6027;48.576;9.180;2023-02-11T10:12:00;21.90;;;19.63;;
11935;SDS011;6027;48.576;9.180;2023-02-11T10:14:31;20.77;;;18.37;;
11935;SDS011;6027;48.576;9.180;2023-02-11T10:17:21;22.80;;;20.13;;
11935;SDS011;6027;48.576;9.180;2023-02-11T10:25:00;20.60;;;18.50;;
11935;SDS011;6027;48.576;9.180;2023-02-11T10:27:42;20.80;;;18.63;;
11935;SDS011;6027;48.576;9.180;2023-02-11T10:30:23;19.60;;;17.50;;
11935;SDS011;6027;48.576;9.180;2023-02-11T10:33:19;27.57;;;23.70;;
11935;SDS011;6027;48.576;9.180;2023-02-11T10:35:49;18.70;;;16.90;;
11935;SDS011;6027;48.576;9.180;2023-02-11T10:38:15;21.97;;;19.70;;
11935;SDS011;6027;48.576;9.180;2023-02-11T10:40:41;19.47;;;16.67;;
11935;SDS011;6027;48.576;9.180;2023-02-11T10:43:09;19.57;;;17.30;;
11935;SDS011;6027;48.576;9.180;2023-02-11T10:45:38;20.77;;;18.03;;
11935;SDS011;6027;48.576;9.180;2023-02-11T10:53:43;20.33;;;17.97;;
11935;SDS011;6027;48.576;9.180;2023-02-11T10:56:21;22.37;;;17.10;;
11935;SDS011;6027;48.576;9.180;2023-02-11T10:59:03;20.83;;;16.87;;
11935;SDS011;6027;48.576;9.180;2023-02-11T11:01:38;21.07;;;18.13;;
11935;SDS011;6027;48.576;9.180;2023-02-11T11:06:53;22.10;;;18.07;;
11935;SDS011;6027;48.576;9.180;2023-02-11T11:09:26;19.73;;;17.07;;
11935;SDS011;6027;48.576;9.180;2023-02-11T11:11:56;18.73;;;16.03;;
11935;SDS011;6027;48.576;9.180;2023-02-11T11:14:22;18.27;;;15.17;;
11935;SDS011;6027;48.576;9.180;2023-02-11T11:16:53;21.00;;;16.60;;
11935;SDS011;6027;48.576;9.180;2023-02-11T11:19:23;16.53;;;13.83;;
11935;SDS011;6027;48.576;9.180;2023-02-11T11:21:53;14.27;;;12.40;;
11935;SDS011;6027;48.576;9.180;2023-02-11T11:24:28;16.07;;;13.10;;
11935;SDS011;6027;48.576;9.180;2023-02-11T11:26:55;15.33;;;11.30;;
11935;SDS011;6027;48.576;9.180;2023-02-11T11:29:32;13.23;;;10.50;;
11935;SDS011;6027;48.576;9.180;2023-02-11T11:32:02;14.97;;;11.00;;
11935;SDS011;6027;48.576;9.180;2023-02-11T11:34:47;14.93;;;10.33;;
11935;SDS011;6027;48.576;9.180;2023-02-11T11:37:27;12.97;;;9.87;;
11935;SDS011;6027;48.576;9.180;2023-02-11T11:42:36;11.30;;;9.27;;
11935;SDS011;6027;48.576;9.180;2023-02-11T11:52:59;9.83;;;8.37;;
11935;SDS011;6027;48.576;9.180;2023-02-11T11:55:27;10.77;;;9.30;;
11935;SDS011;6027;48.576;9.180;2023-02-11T11:58:03;10.17;;;7.73;;
11935;SDS011;6027;48.576;9.180;2023-02-11T12:00:35;10.53;;;8.43;;
11935;SDS011;6027;48.576;9.180;2023-02-11T12:06:10;9.77;;;7.30;;
11935;SDS011;6027;48.576;9.180;2023-02-11T12:17:10;12.05;;;7.88;;
11935;SDS011;6027;48.576;9.180;2023-02-11T12:20:03;7.83;;;6.07;;
11935;SDS011;6027;48.576;9.180;2023-02-11T12:25:45;8.13;;;6.17;;
11935;SDS011;6027;48.576;9.180;2023-02-11T12:28:34;7.30;;;5.90;;
11935;SDS011;6027;48.576;9.180;2023-02-11T12:42:06;8.77;;;5.88;;
11935;SDS011;6027;48.576;9.180;2023-02-11T12:44:57;5.68;;;4.88;;
11935;SDS011;6027;48.576;9.180;2023-02-11T12:52:52;5.38;;;4.60;;
11935;SDS011;6027;48.576;9.180;2023-02-11T12:55:29;5.95;;;4.95;;
11935;SDS011;6027;48.576;9.180;2023-02-11T12:58:02;6.55;;;4.82;;
11935;SDS011;6027;48.576;9.180;2023-02-11T13:00:42;6.68;;;5.07;;
11935;SDS011;6027;48.576;9.180;2023-02-11T13:05:53;5.78;;;4.80;;
11935;SDS011;6027;48.576;9.180;2023-02-11T13:08:32;5.65;;;4.60;;
11935;SDS011;6027;48.576;9.180;2023-02-11T13:11:02;9.23;;;4.70;;
11935;SDS011;6027;48.576;9.180;2023-02-11T13:13:32;5.80;;;4.50;;
11935;SDS011;6027;48.576;9.180;2023-02-11T13:16:05;7.72;;;4.60;;
11935;SDS011;6027;48.576;9.180;2023-02-11T13:18:44;6.30;;;4.95;;
11935;SDS011;6027;48.576;9.180;2023-02-11T13:26:40;8.18;;;5.20;;
11935;SDS011;6027;48.576;9.180;2023-02-11T13:32:08;7.07;;;5.60;;
11935;SDS011;6027;48.576;9.180;2023-02-11T13:37:21;7.60;;;5.45;;
11935;SDS011;6027;48.576;9.180;2023-02-11T13:39:56;7.82;;;5.40;;
11935;SDS011;6027;48.576;9.180;2023-02-11T13:42:23;7.30;;;5.13;;
11935;SDS011;6027;48.576;9.180;2023-02-11T13:44:49;6.82;;;5.85;;
11935;SDS011;6027;48.576;9.180;2023-02-11T13:50:19;8.43;;;6.90;;
11935;SDS011;6027;48.576;9.180;2023-02-11T13:52:55;10.57;;;8.68;;
11935;SDS011;6027;48.576;9.180;2023-02-11T13:55:23;8.93;;;7.05;;
11935;SDS011;6027;48.576;9.180;2023-02-11T14:06:36;10.88;;;7.63;;
11935;SDS011;6027;48.576;9.180;2023-02-11T14:14:18;9.10;;;7.85;;
11935;SDS011;6027;48.576;9.180;2023-02-11T14:22:18;15.45;;;9.95;;
11935;SDS011;6027;48.576;9.180;2023-02-11T14:43:47;13.57;;;10.50;;
11935;SDS011;6027;48.576;9.180;2023-02-11T14:46:17;14.70;;;11.30;;
11935;SDS011;6027;48.576;9.180;2023-02-11T14:48:47;13.07;;;10.65;;
11935;SDS011;6027;48.576;9.180;2023-02-11T14:51:20;13.77;;;11.35;;
11935;SDS011;6027;48.576;9.180;2023-02-11T14:53:51;17.25;;;11.35;;
11935;SDS011;6027;48.576;9.180;2023-02-11T14:56:26;13.55;;;10.32;;
11935;SDS011;6027;48.576;9.180;2023-02-11T14:58:58;12.23;;;10.23;;
11935;SDS011;6027;48.576;9.180;2023-02-11T15:01:28;12.40;;;9.45;;
11935;SDS011;6027;48.576;9.180;2023-02-11T15:03:59;10.85;;;9.50;;
11935;SDS011;6027;48.576;9.180;2023-02-11T15:06:29;11.07;;;9.90;;
11935;SDS011;6027;48.576;9.180;2023-02-11T15:09:05;13.13;;;9.35;;
11935;SDS011;6027;48.576;9.180;2023-02-11T15:11:39;11.55;;;9.20;;
11935;SDS011;6027;48.576;9.180;2023-02-11T15:14:10;14.68;;;11.02;;
11935;SDS011;6027;48.576;9.180;2023-02-11T15:16:45;12.70;;;8.98;;
11935;SDS011;6027;48.576;9.180;2023-02-11T15:19:22;11.82;;;9.38;;
11935;SDS011;6027;48.576;9.180;2023-02-11T15:22:00;14.70;;;10.05;;
11935;SDS011;6027;48.576;9.180;2023-02-11T15:24:31;13.13;;;9.68;;
11935;SDS011;6027;48.576;9.180;2023-02-11T15:27:03;13.57;;;9.30;;
11935;SDS011;6027;48.576;9.180;2023-02-11T15:29:49;10.27;;;8.18;;
11935;SDS011;6027;48.576;9.180;2023-02-11T15:34:45;13.43;;;8.32;;
11935;SDS011;6027;48.576;9.180;2023-02-11T15:37:13;8.88;;;7.93;;
11935;SDS011;6027;48.576;9.180;2023-02-11T15:39:43;9.68;;;7.68;;
11935;SDS011;6027;48.576;9.180;2023-02-11T15:44:49;9.43;;;7.53;;
11935;SDS011;6027;48.576;9.180;2023-02-11T15:47:33;9.38;;;7.57;;
11935;SDS011;6027;48.576;9.180;2023-02-11T15:49:59;11.07;;;7.97;;
11935;SDS011;6027;48.576;9.180;2023-02-11T15:52:25;12.73;;;8.25;;
11935;SDS011;6027;48.576;9.180;2023-02-11T15:54:52;11.88;;;8.80;;
11935;SDS011;6027;48.576;9.180;2023-02-11T15:57:20;11.55;;;8.90;;
11935;SDS011;6027;48.576;9.180;2023-02-11T15:59:53;12.50;;;9.85;;
11935;SDS011;6027;48.576;9.180;2023-02-11T16:02:29;12.23;;;9.27;;
11935;SDS011;6027;48.576;9.180;2023-02-11T16:05:01;13.73;;;9.32;;
11935;SDS011;6027;48.576;9.180;2023-02-11T16:07:39;15.63;;;9.75;;
11935;SDS011;6027;48.576;9.180;2023-02-11T16:10:21;12.23;;;9.55;;
11935;SDS011;6027;48.576;9.180;2023-02-11T16:12:51;12.27;;;10.00;;
11935;SDS011;6027;48.576;9.180;2023-02-11T16:17:58;14.93;;;10.20;;
11935;SDS011;6027;48.576;9.180;2023-02-11T16:20:25;14.70;;;10.15;;
11935;SDS011;6027;48.576;9.180;2023-02-11T16:22:50;13.70;;;10.80;;
11935;SDS011;6027;48.576;9.180;2023-02-11T16:25:17;16.58;;;11.38;;
11935;SDS011;6027;48.576;9.180;2023-02-11T16:27:46;14.70;;;11.35;;
11935;SDS011;6027;48.576;9.180;2023-02-11T16:30:49;15.90;;;11.52;;
11935;SDS011;6027;48.576;9.180;2023-02-11T16:33:08;17.17;;;11.48;;
11935;SDS011;6027;48.576;9.180;2023-02-11T16:35:34;17.25;;;13.77;;
11935;SDS011;6027;48.576;9.180;2023-02-11T16:38:02;20.33;;;16.75;;
11935;SDS011;6027;48.576;9.180;2023-02-11T16:40:27;22.27;;;17.15;;
11935;SDS011;6027;48.576;9.180;2023-02-11T16:42:53;20.83;;;16.60;;
11935;SDS011;6027;48.576;9.180;2023-02-11T16:45:18;19.38;;;13.73;;
11935;SDS011;6027;48.576;9.180;2023-02-11T16:47:44;17.35;;;13.57;;
11935;SDS011;6027;48.576;9.180;2023-02-11T16:50:11;17.23;;;14.57;;
11935;SDS011;6027;48.576;9.180;2023-02-11T16:52:45;19.02;;;15.15;;
11935;SDS011;6027;48.576;9.180;2023-02-11T16:55:11;17.27;;;14.57;;
11935;SDS011;6027;48.576;9.180;2023-02-11T16:57:37;17.52;;;14.68;;
11935;SDS011;6027;48.576;9.180;2023-02-11T17:00:03;22.67;;;16.20;;
11935;SDS011;6027;48.576;9.180;2023-02-11T17:02:31;18.20;;;14.10;;
11935;SDS011;6027;48.576;9.180;2023-02-11T17:05:00;16.60;;;14.65;;
11935;SDS011;6027;48.576;9.180;2023-02-11T17:07:28;19.70;;;15.15;;
11935;SDS011;6027;48.576;9.180;2023-02-11T17:09:55;18.85;;;16.42;;
11935;SDS011;6027;48.576;9.180;2023-02-11T17:12:21;18.27;;;16.38;;
11935;SDS011;6027;48.576;9.180;2023-02-11T17:14:49;20.60;;;16.60;;
11935;SDS011;6027;48.576;9.180;2023-02-11T17:17:15;17.98;;;15.98;;
11935;SDS011;6027;48.576;9.180;2023-02-11T17:19:41;18.90;;;16.00;;
11935;SDS011;6027;48.576;9.180;2023-02-11T17:22:08;19.08;;;16.05;;
11935;SDS011;6027;48.576;9.180;2023-02-11T17:24:35;19.80;;;16.27;;
11935;SDS011;6027;48.576;9.180;2023-02-11T17:27:00;22.02;;;16.77;;
11935;SDS011;6027;48.576;9.180;2023-02-11T17:29:26;19.63;;;16.48;;
11935;SDS011;6027;48.576;9.180;2023-02-11T17:31:51;19.58;;;16.63;;
11935;SDS011;6027;48.576;9.180;2023-02-11T17:34:17;19.20;;;16.77;;